Time;durP1;ratioP1;P1;durP2;ratioP2;P2;SDS_P1;SDS_P2;PMS_P1;PMS_P2;Temp;Humidity;BMP_temperature;BMP_pressure;BME280_temperature;BME280_humidity;BME280_pressure;Samples;Min_cycle;Max_cycle;Signal;HPM_P1;HPM_P2
2023/08/04 00:00:32;;;;;;;4.07;1.70;;;;;;;;;;5078262;28;20549;-53
2023/08/04 00:02:58;;;;;;;8.43;3.10;;;;;;;;;;5078315;28;20176;-48
2023/08/04 00:05:24;;;;;;;7.33;2.13;;;;;;;;;;5078946;28;20161;-50
2023/08/04 00:07:50;;;;;;;15.43;3.13;;;;;;;;;;5077816;28;20176;-50
2023/08/04 00:10:16;;;;;;;7.80;2.43;;;;;;;;;;5077107;28;20218;-50
2023/08/04 00:12:42;;;;;;;5.30;2.23;;;;;;;;;;5077261;28;20175;-45
2023/08/04 00:15:08;;;;;;;13.13;2.87;;;;;;;;;;5077423;28;20177;-48
2023/08/04 00:17:38;;;;;;;6.53;2.03;;;;;;;;;;5077897;28;20200;-52
2023/08/04 00:20:04;;;;;;;8.30;2.67;;;;;;;;;;5076602;28;20200;-48
2023/08/04 00:22:30;;;;;;;5.97;2.60;;;;;;;;;;5077161;28;20241;-48
2023/08/04 00:24:56;;;;;;;8.83;2.90;;;;;;;;;;5076984;28;20169;-46
2023/08/04 00:27:22;;;;;;;5.43;1.73;;;;;;;;;;5076794;28;20164;-45
2023/08/04 00:29:48;;;;;;;5.20;2.10;;;;;;;;;;5076631;28;20181;-48
2023/08/04 00:32:14;;;;;;;5.83;2.43;;;;;;;;;;5076618;28;20169;-49
2023/08/04 00:34:40;;;;;;;13.10;2.70;;;;;;;;;;5076607;28;20184;-47
2023/08/04 00:37:06;;;;;;;6.43;2.57;;;;;;;;;;5076802;28;20177;-45
2023/08/04 00:39:32;;;;;;;5.70;2.13;;;;;;;;;;5075948;28;20228;-45
2023/08/04 00:41:58;;;;;;;7.57;2.60;;;;;;;;;;5076803;28;20165;-50
2023/08/04 00:44:24;;;;;;;5.60;2.40;;;;;;;;;;5076660;28;20181;-47
2023/08/04 00:46:51;;;;;;;8.40;2.87;;;;;;;;;;5076924;28;20339;-48
2023/08/04 00:49:18;;;;;;;10.63;2.47;;;;;;;;;;5076765;28;20218;-52
2023/08/04 00:51:44;;;;;;;6.60;2.00;;;;;;;;;;5077233;28;20226;-50
2023/08/04 00:54:10;;;;;;;4.13;2.13;;;;;;;;;;5077039;28;20169;-46
2023/08/04 00:56:37;;;;;;;7.13;3.07;;;;;;;;;;5076688;28;20171;-47
2023/08/04 00:59:03;;;;;;;7.23;2.63;;;;;;;;;;5076762;28;20196;-51
2023/08/04 01:01:29;;;;;;;7.77;2.20;;;;;;;;;;5076202;28;20195;-49
2023/08/04 01:03:56;;;;;;;7.20;2.50;;;;;;;;;;5077152;28;20229;-50
2023/08/04 01:06:26;;;;;;;4.10;2.23;;;;;;;;;;5076556;28;20161;-49
2023/08/04 01:09:01;;;;;;;6.47;2.60;;;;;;;;;;5076551;28;20165;-48
2023/08/04 01:11:29;;;;;;;7.83;1.73;;;;;;;;;;5076335;28;20225;-51
2023/08/04 01:13:55;;;;;;;4.63;1.87;;;;;;;;;;5076501;28;20179;-45
2023/08/04 01:16:22;;;;;;;5.93;2.77;;;;;;;;;;5076874;28;20184;-49
2023/08/04 01:18:47;;;;;;;12.07;2.73;;;;;;;;;;5075649;28;20502;-48
2023/08/04 01:21:13;;;;;;;4.10;1.83;;;;;;;;;;5076150;28;20183;-47
2023/08/04 01:23:39;;;;;;;5.23;1.90;;;;;;;;;;5076218;28;20238;-47
2023/08/04 01:26:09;;;;;;;5.73;2.87;;;;;;;;;;5077202;28;20160;-45
2023/08/04 01:28:35;;;;;;;7.53;2.83;;;;;;;;;;5075686;28;20177;-46
2023/08/04 01:31:01;;;;;;;12.73;2.50;;;;;;;;;;5076401;28;20176;-52
2023/08/04 01:33:29;;;;;;;5.70;2.37;;;;;;;;;;5075519;28;20176;-49
2023/08/04 01:35:55;;;;;;;7.43;2.20;;;;;;;;;;5076575;28;20214;-48
2023/08/04 01:38:21;;;;;;;8.87;2.30;;;;;;;;;;5075679;28;20274;-45
2023/08/04 01:40:47;;;;;;;5.13;1.87;;;;;;;;;;5076264;28;20173;-50
2023/08/04 01:43:13;;;;;;;5.77;2.20;;;;;;;;;;5075849;28;20176;-46
2023/08/04 01:45:38;;;;;;;6.03;2.53;;;;;;;;;;5076180;28;20180;-48
2023/08/04 01:48:05;;;;;;;9.73;2.33;;;;;;;;;;5074998;28;20186;-47
2023/08/04 01:50:32;;;;;;;3.60;2.07;;;;;;;;;;5076831;28;20633;-49
2023/08/04 01:52:58;;;;;;;6.27;2.47;;;;;;;;;;5076106;28;20176;-45
2023/08/04 01:55:24;;;;;;;6.77;2.60;;;;;;;;;;5076365;28;20168;-48
2023/08/04 01:57:50;;;;;;;6.30;2.20;;;;;;;;;;5076243;28;20521;-47
2023/08/04 02:00:18;;;;;;;3.87;2.30;;;;;;;;;;5076669;28;20216;-48
2023/08/04 02:02:44;;;;;;;9.70;3.03;;;;;;;;;;5081060;28;20235;-50
2023/08/04 02:05:10;;;;;;;6.27;2.50;;;;;;;;;;5081071;28;20204;-47
2023/08/04 02:07:36;;;;;;;5.87;2.57;;;;;;;;;;5079759;28;20173;-50
2023/08/04 02:10:03;;;;;;;7.63;2.40;;;;;;;;;;5080858;28;20271;-51
2023/08/04 02:12:29;;;;;;;7.07;2.73;;;;;;;;;;5078970;28;20242;-45
2023/08/04 02:14:55;;;;;;;11.00;2.97;;;;;;;;;;5078131;28;20262;-47
2023/08/04 02:17:21;;;;;;;4.33;2.27;;;;;;;;;;5078997;28;20540;-45
2023/08/04 02:19:47;;;;;;;11.13;3.33;;;;;;;;;;5078337;28;20196;-50
2023/08/04 02:22:13;;;;;;;10.37;2.77;;;;;;;;;;5080547;28;20191;-45
2023/08/04 02:24:39;;;;;;;3.93;2.20;;;;;;;;;;5080094;28;20173;-50
2023/08/04 02:27:06;;;;;;;9.60;2.40;;;;;;;;;;5079635;28;20188;-46
2023/08/04 02:29:32;;;;;;;7.50;2.73;;;;;;;;;;5079927;28;20183;-47
2023/08/04 02:31:57;;;;;;;5.67;2.60;;;;;;;;;;5079880;28;20173;-47
2023/08/04 02:34:23;;;;;;;5.73;2.50;;;;;;;;;;5080110;28;20176;-51
2023/08/04 02:36:49;;;;;;;8.80;2.67;;;;;;;;;;5078976;28;20173;-48
2023/08/04 02:39:15;;;;;;;4.37;2.63;;;;;;;;;;5079165;28;20228;-48
2023/08/04 02:41:41;;;;;;;4.90;2.40;;;;;;;;;;5079277;28;20719;-47
2023/08/04 02:44:07;;;;;;;9.27;3.00;;;;;;;;;;5079059;28;20193;-47
2023/08/04 02:46:34;;;;;;;5.83;2.60;;;;;;;;;;5079337;28;20708;-48
2023/08/04 02:49:00;;;;;;;6.67;2.83;;;;;;;;;;5079273;28;20221;-49
2023/08/04 02:51:26;;;;;;;5.90;2.90;;;;;;;;;;5078257;28;20181;-45
2023/08/04 02:53:52;;;;;;;9.30;2.93;;;;;;;;;;5079300;28;20201;-47
2023/08/04 02:56:18;;;;;;;9.60;3.90;;;;;;;;;;5079776;28;20550;-46
2023/08/04 02:58:47;;;;;;;8.03;3.57;;;;;;;;;;5078942;28;20200;-47
2023/08/04 03:01:14;;;;;;;6.80;3.30;;;;;;;;;;5079350;28;20199;-48
2023/08/04 03:03:40;;;;;;;9.50;2.67;;;;;;;;;;5079718;28;20160;-50
2023/08/04 03:06:06;;;;;;;7.80;3.40;;;;;;;;;;5078743;28;20173;-49
2023/08/04 03:08:32;;;;;;;8.17;3.13;;;;;;;;;;5078914;28;20298;-51
2023/08/04 03:10:58;;;;;;;11.03;3.20;;;;;;;;;;5078126;28;20234;-49
2023/08/04 03:13:24;;;;;;;11.07;3.63;;;;;;;;;;5078685;28;20184;-51
2023/08/04 03:15:57;;;;;;;7.90;2.60;;;;;;;;;;5078810;28;20239;-45
2023/08/04 03:18:23;;;;;;;7.10;3.07;;;;;;;;;;5079115;28;20537;-46
2023/08/04 03:20:49;;;;;;;6.17;3.37;;;;;;;;;;5078348;28;20230;-46
2023/08/04 03:23:29;;;;;;;5.57;3.17;;;;;;;;;;5078063;28;20169;-48
2023/08/04 03:25:55;;;;;;;7.57;2.43;;;;;;;;;;5077843;28;20165;-46
2023/08/04 03:28:21;;;;;;;9.07;2.73;;;;;;;;;;5078098;28;20241;-45
2023/08/04 03:30:47;;;;;;;11.03;3.37;;;;;;;;;;5078320;28;20181;-47
2023/08/04 03:33:13;;;;;;;8.87;3.50;;;;;;;;;;5078242;28;20169;-45
2023/08/04 03:35:39;;;;;;;8.90;3.30;;;;;;;;;;5078033;28;20196;-50
2023/08/04 03:38:05;;;;;;;12.70;3.90;;;;;;;;;;5078253;28;20169;-47
2023/08/04 03:40:31;;;;;;;9.33;3.27;;;;;;;;;;5079404;28;20228;-46
2023/08/04 03:42:57;;;;;;;6.13;2.97;;;;;;;;;;5078278;28;20211;-48
2023/08/04 03:45:23;;;;;;;14.10;3.60;;;;;;;;;;5077784;28;20588;-47
2023/08/04 03:47:49;;;;;;;9.07;3.47;;;;;;;;;;5077681;28;20204;-46
2023/08/04 03:50:15;;;;;;;7.73;3.37;;;;;;;;;;5077402;28;20583;-45
2023/08/04 03:52:41;;;;;;;5.63;2.90;;;;;;;;;;5077509;28;20169;-45
2023/08/04 03:55:07;;;;;;;8.53;2.67;;;;;;;;;;5077688;28;20184;-53
2023/08/04 03:57:33;;;;;;;8.83;2.60;;;;;;;;;;5077213;28;20161;-52
2023/08/04 04:00:00;;;;;;;7.37;2.70;;;;;;;;;;5076851;28;20257;-48
2023/08/04 04:02:26;;;;;;;6.73;2.43;;;;;;;;;;5077111;28;20492;-48
2023/08/04 04:04:52;;;;;;;6.60;2.40;;;;;;;;;;5078372;28;20733;-48
2023/08/04 04:07:21;;;;;;;6.07;2.63;;;;;;;;;;5077039;28;20183;-47
2023/08/04 04:09:47;;;;;;;5.77;2.37;;;;;;;;;;5077131;28;20176;-47
2023/08/04 04:12:13;;;;;;;6.60;2.60;;;;;;;;;;5075938;28;20169;-45
2023/08/04 04:14:39;;;;;;;5.47;2.57;;;;;;;;;;5076410;28;20342;-50
2023/08/04 04:17:05;;;;;;;11.50;3.37;;;;;;;;;;5077089;28;20176;-47
2023/08/04 04:19:31;;;;;;;6.90;3.10;;;;;;;;;;5076855;28;20288;-50
2023/08/04 04:21:57;;;;;;;9.67;3.33;;;;;;;;;;5076799;28;20279;-48
2023/08/04 04:24:23;;;;;;;7.57;2.93;;;;;;;;;;5077673;28;20180;-50
2023/08/04 04:26:49;;;;;;;7.00;3.27;;;;;;;;;;5077580;28;20167;-48
2023/08/04 04:29:15;;;;;;;9.50;3.33;;;;;;;;;;5077620;28;20249;-50
2023/08/04 04:31:41;;;;;;;9.40;3.37;;;;;;;;;;5076787;28;20176;-49
2023/08/04 04:34:09;;;;;;;7.33;2.80;;;;;;;;;;5076676;28;20173;-50
2023/08/04 04:36:35;;;;;;;7.10;3.60;;;;;;;;;;5076554;28;20176;-48
2023/08/04 04:39:01;;;;;;;6.00;3.17;;;;;;;;;;5076261;28;20224;-45
2023/08/04 04:41:28;;;;;;;8.07;3.07;;;;;;;;;;5076065;28;20187;-50
2023/08/04 04:43:54;;;;;;;10.20;3.50;;;;;;;;;;5076158;28;20168;-46
2023/08/04 04:46:20;;;;;;;4.87;2.60;;;;;;;;;;5076673;28;20318;-46
2023/08/04 04:48:46;;;;;;;8.57;3.10;;;;;;;;;;5076369;28;20180;-48
2023/08/04 04:51:13;;;;;;;8.03;3.10;;;;;;;;;;5077479;28;20169;-48
2023/08/04 04:53:39;;;;;;;6.23;2.93;;;;;;;;;;5077591;28;20164;-48
2023/08/04 04:56:06;;;;;;;7.60;3.03;;;;;;;;;;5076558;28;20264;-49
2023/08/04 04:58:39;;;;;;;8.67;3.47;;;;;;;;;;5076361;28;20173;-49
2023/08/04 05:01:05;;;;;;;7.03;2.73;;;;;;;;;;5077202;28;20184;-51
2023/08/04 05:03:31;;;;;;;5.43;3.10;;;;;;;;;;5076066;28;20179;-50
2023/08/04 05:05:57;;;;;;;10.23;3.17;;;;;;;;;;5075730;28;20173;-51
2023/08/04 05:08:23;;;;;;;6.60;2.70;;;;;;;;;;5075930;28;20164;-51
2023/08/04 05:10:53;;;;;;;11.73;3.30;;;;;;;;;;5075816;28;20169;-47
2023/08/04 05:13:19;;;;;;;9.97;3.10;;;;;;;;;;5074551;28;20386;-46
2023/08/04 05:15:48;;;;;;;10.07;2.93;;;;;;;;;;5074835;28;20712;-51
2023/08/04 05:18:15;;;;;;;5.37;2.63;;;;;;;;;;5074426;28;20547;-48
2023/08/04 05:20:44;;;;;;;11.73;3.10;;;;;;;;;;5073791;28;20176;-47
2023/08/04 05:23:10;;;;;;;6.37;3.07;;;;;;;;;;5074620;28;20674;-46
2023/08/04 05:25:36;;;;;;;7.60;3.03;;;;;;;;;;5073079;28;20216;-49
2023/08/04 05:28:20;;;;;;;5.87;2.77;;;;;;;;;;5073875;28;20463;-46
2023/08/04 05:30:46;;;;;;;5.83;2.90;;;;;;;;;;5074062;28;20191;-47
2023/08/04 05:33:12;;;;;;;8.47;3.30;;;;;;;;;;5074395;28;20255;-47
2023/08/04 05:35:38;;;;;;;8.17;2.90;;;;;;;;;;5075265;28;20223;-48
2023/08/04 05:38:04;;;;;;;5.73;2.80;;;;;;;;;;5075620;28;20559;-46
2023/08/04 05:40:32;;;;;;;10.17;2.80;;;;;;;;;;5076290;28;20188;-48
2023/08/04 05:42:59;;;;;;;7.70;2.87;;;;;;;;;;5075240;28;20180;-48
2023/08/04 05:45:25;;;;;;;8.37;2.80;;;;;;;;;;5073949;28;20286;-47
2023/08/04 05:47:50;;;;;;;7.20;2.57;;;;;;;;;;5073599;28;20333;-51
2023/08/04 05:50:16;;;;;;;6.33;2.50;;;;;;;;;;5074884;28;20153;-49
2023/08/04 05:52:42;;;;;;;5.73;2.57;;;;;;;;;;5074157;28;20181;-51
2023/08/04 05:55:08;;;;;;;6.43;3.10;;;;;;;;;;5073830;28;20185;-50
2023/08/04 05:57:34;;;;;;;6.90;3.23;;;;;;;;;;5074675;28;20774;-49
2023/08/04 06:00:00;;;;;;;6.77;2.33;;;;;;;;;;5073826;28;20220;-50
2023/08/04 06:02:26;;;;;;;4.67;2.17;;;;;;;;;;5072694;28;20180;-48
2023/08/04 06:04:52;;;;;;;10.50;2.77;;;;;;;;;;5072884;28;20173;-49
2023/08/04 06:07:18;;;;;;;8.93;2.60;;;;;;;;;;5073097;28;20229;-45
2023/08/04 06:09:49;;;;;;;6.97;2.33;;;;;;;;;;5073420;28;20250;-52
2023/08/04 06:12:15;;;;;;;6.47;2.37;;;;;;;;;;5073091;28;20173;-46
2023/08/04 06:14:42;;;;;;;6.00;2.40;;;;;;;;;;5071573;28;20180;-51
2023/08/04 06:17:08;;;;;;;6.83;2.37;;;;;;;;;;5071104;28;20500;-48
2023/08/04 06:19:34;;;;;;;7.07;2.20;;;;;;;;;;5070776;28;20205;-49
2023/08/04 06:22:00;;;;;;;3.80;2.53;;;;;;;;;;5072038;28;20185;-48
2023/08/04 06:24:29;;;;;;;8.83;2.50;;;;;;;;;;5072191;28;20157;-49
2023/08/04 06:26:55;;;;;;;4.00;1.97;;;;;;;;;;5071710;28;20164;-49
2023/08/04 06:29:21;;;;;;;5.67;2.57;;;;;;;;;;5070789;28;20181;-49
2023/08/04 06:31:47;;;;;;;6.53;2.30;;;;;;;;;;5070506;28;20201;-47
2023/08/04 06:34:13;;;;;;;5.97;2.17;;;;;;;;;;5070505;28;20176;-48
2023/08/04 06:36:40;;;;;;;5.33;2.20;;;;;;;;;;5070548;28;20173;-48
2023/08/04 06:39:05;;;;;;;6.57;1.93;;;;;;;;;;5070327;28;20695;-49
2023/08/04 06:41:31;;;;;;;5.53;2.00;;;;;;;;;;5070465;28;20173;-50
2023/08/04 06:43:57;;;;;;;6.40;2.27;;;;;;;;;;5070861;28;20207;-49
2023/08/04 06:46:23;;;;;;;7.33;2.80;;;;;;;;;;5072515;28;20169;-49
2023/08/04 06:48:49;;;;;;;4.23;1.60;;;;;;;;;;5074907;28;20165;-52
2023/08/04 06:51:15;;;;;;;4.77;2.37;;;;;;;;;;5074964;28;20176;-49
2023/08/04 06:53:42;;;;;;;7.07;2.40;;;;;;;;;;5074487;28;20181;-52
2023/08/04 06:56:09;;;;;;;5.40;2.37;;;;;;;;;;5074724;28;20172;-47
2023/08/04 06:58:35;;;;;;;6.37;2.67;;;;;;;;;;5074330;28;20157;-53
2023/08/04 07:01:01;;;;;;;6.40;2.40;;;;;;;;;;5074778;28;20238;-47
2023/08/04 07:03:27;;;;;;;7.43;1.87;;;;;;;;;;5073772;28;20233;-48
2023/08/04 07:05:53;;;;;;;3.27;2.00;;;;;;;;;;5076124;28;20169;-47
2023/08/04 07:08:19;;;;;;;7.47;2.17;;;;;;;;;;5075766;28;20175;-51
2023/08/04 07:10:45;;;;;;;4.53;2.17;;;;;;;;;;5076252;28;20181;-52
2023/08/04 07:13:11;;;;;;;3.33;1.83;;;;;;;;;;5074563;28;20203;-49
2023/08/04 07:15:37;;;;;;;6.13;2.57;;;;;;;;;;5074992;28;20463;-49
2023/08/04 07:18:03;;;;;;;9.47;2.03;;;;;;;;;;5076410;28;20264;-49
2023/08/04 07:20:31;;;;;;;7.03;2.97;;;;;;;;;;5074293;28;20204;-47
2023/08/04 07:22:57;;;;;;;5.87;2.00;;;;;;;;;;5074116;28;20335;-47
2023/08/04 07:25:23;;;;;;;6.10;2.30;;;;;;;;;;5074566;28;20255;-46
2023/08/04 07:27:49;;;;;;;6.67;2.00;;;;;;;;;;5075561;28;20444;-46
2023/08/04 07:30:15;;;;;;;7.70;2.10;;;;;;;;;;5074625;28;20576;-46
2023/08/04 07:32:42;;;;;;;8.93;2.23;;;;;;;;;;5075169;28;20180;-45
2023/08/04 07:35:08;;;;;;;5.13;2.10;;;;;;;;;;5074528;28;20180;-47
2023/08/04 07:37:34;;;;;;;6.40;2.10;;;;;;;;;;5073992;28;20589;-45
2023/08/04 07:40:00;;;;;;;3.00;2.17;;;;;;;;;;5072677;28;20224;-50
2023/08/04 07:42:27;;;;;;;4.07;1.80;;;;;;;;;;5072415;28;20184;-46
2023/08/04 07:44:53;;;;;;;3.43;1.80;;;;;;;;;;5073981;28;20255;-50
2023/08/04 07:47:20;;;;;;;6.87;2.00;;;;;;;;;;5073862;28;20177;-48
2023/08/04 07:49:47;;;;;;;5.33;2.17;;;;;;;;;;5073774;28;20684;-49
2023/08/04 07:52:13;;;;;;;7.07;2.30;;;;;;;;;;5073762;28;20185;-47
2023/08/04 07:54:41;;;;;;;3.97;1.83;;;;;;;;;;5073384;28;20169;-46
2023/08/04 07:57:08;;;;;;;4.37;1.50;;;;;;;;;;5074317;28;20230;-46
2023/08/04 07:59:34;;;;;;;2.90;1.37;;;;;;;;;;5061900;28;20323;-45
2023/08/04 08:02:00;;;;;;;4.00;1.73;;;;;;;;;;5093254;28;20270;-47
2023/08/04 08:04:27;;;;;;;4.63;1.90;;;;;;;;;;5094125;28;20156;-51
2023/08/04 08:06:55;;;;;;;4.67;2.03;;;;;;;;;;5094298;28;20172;-48
2023/08/04 08:09:21;;;;;;;5.67;1.60;;;;;;;;;;5093646;28;20176;-48
2023/08/04 08:11:48;;;;;;;2.70;1.50;;;;;;;;;;5093859;28;20233;-49
2023/08/04 08:14:16;;;;;;;2.57;1.50;;;;;;;;;;5093936;28;20186;-50
2023/08/04 08:16:42;;;;;;;7.00;1.60;;;;;;;;;;5092392;28;20172;-49
2023/08/04 08:19:09;;;;;;;3.70;1.27;;;;;;;;;;5092556;28;20196;-51
2023/08/04 08:21:42;;;;;;;3.80;1.30;;;;;;;;;;5091980;28;20164;-50
2023/08/04 08:24:10;;;;;;;3.47;1.37;;;;;;;;;;5092429;28;20180;-48
2023/08/04 08:26:37;;;;;;;4.70;1.60;;;;;;;;;;5092321;28;20465;-48
2023/08/04 08:29:05;;;;;;;3.50;1.40;;;;;;;;;;5093675;28;20209;-51
2023/08/04 08:31:32;;;;;;;2.63;1.50;;;;;;;;;;5092571;28;20477;-52
2023/08/04 08:34:00;;;;;;;4.97;1.80;;;;;;;;;;5091546;28;20167;-51
2023/08/04 08:36:27;;;;;;;5.27;1.47;;;;;;;;;;5091944;28;20278;-48
2023/08/04 08:38:53;;;;;;;5.33;1.57;;;;;;;;;;5090004;28;20195;-50
2023/08/04 08:41:19;;;;;;;6.17;1.73;;;;;;;;;;5088701;28;20164;-48
2023/08/04 08:43:46;;;;;;;6.00;2.47;;;;;;;;;;5088724;28;20262;-49
2023/08/04 08:46:16;;;;;;;3.43;1.37;;;;;;;;;;5089509;28;20226;-48
2023/08/04 08:48:44;;;;;;;3.37;1.60;;;;;;;;;;5091128;28;20271;-48
2023/08/04 08:51:19;;;;;;;2.50;1.40;;;;;;;;;;5091239;28;20168;-47
2023/08/04 08:53:47;;;;;;;5.40;1.10;;;;;;;;;;5091092;28;20182;-47
2023/08/04 08:56:14;;;;;;;4.87;1.60;;;;;;;;;;5091622;28;20172;-48
2023/08/04 08:58:42;;;;;;;2.00;1.00;;;;;;;;;;5090569;28;20675;-48
2023/08/04 09:01:08;;;;;;;2.30;1.60;;;;;;;;;;5089017;28;20228;-48
2023/08/04 09:03:36;;;;;;;2.53;1.20;;;;;;;;;;5090904;28;20152;-50
2023/08/04 09:06:02;;;;;;;1.57;1.00;;;;;;;;;;5091988;28;20634;-48
2023/08/04 09:08:28;;;;;;;1.10;1.00;;;;;;;;;;5093194;28;20179;-48
2023/08/04 09:10:54;;;;;;;3.93;1.27;;;;;;;;;;5092039;28;20168;-51
2023/08/04 09:13:21;;;;;;;1.60;1.03;;;;;;;;;;5093194;28;20210;-49
2023/08/04 09:15:49;;;;;;;3.40;1.57;;;;;;;;;;5093053;28;20861;-46
2023/08/04 09:18:32;;;;;;;1.53;1.20;;;;;;;;;;5092211;28;20168;-53
2023/08/04 09:21:10;;;;;;;2.20;0.90;;;;;;;;;;5091100;28;20578;-51
2023/08/04 09:23:37;;;;;;;1.47;0.80;;;;;;;;;;5089538;28;20172;-51
2023/08/04 09:26:03;;;;;;;1.13;1.00;;;;;;;;;;5090627;28;20168;-48
2023/08/04 09:28:29;;;;;;;2.33;0.97;;;;;;;;;;5091283;28;20229;-48
2023/08/04 09:31:11;;;;;;;2.97;1.20;;;;;;;;;;5090879;28;20160;-48
2023/08/04 09:33:44;;;;;;;1.27;1.00;;;;;;;;;;5088632;28;20192;-50
2023/08/04 09:36:17;;;;;;;2.00;1.13;;;;;;;;;;5090464;28;20225;-49
2023/08/04 09:38:44;;;;;;;2.03;1.33;;;;;;;;;;5090583;28;20178;-52
2023/08/04 09:41:12;;;;;;;0.87;0.80;;;;;;;;;;5091140;28;20801;-46
2023/08/04 09:43:45;;;;;;;2.37;1.20;;;;;;;;;;5091904;28;20176;-50
2023/08/04 09:46:12;;;;;;;3.70;0.97;;;;;;;;;;5092656;28;20616;-49
2023/08/04 09:48:38;;;;;;;2.60;0.80;;;;;;;;;;5092575;28;20472;-48
2023/08/04 09:51:07;;;;;;;2.20;1.20;;;;;;;;;;5092027;28;20575;-49
2023/08/04 09:53:46;;;;;;;2.93;1.00;;;;;;;;;;5092251;28;20217;-48
2023/08/04 09:56:13;;;;;;;4.07;1.03;;;;;;;;;;5093206;28;20183;-47
2023/08/04 09:58:41;;;;;;;2.13;0.93;;;;;;;;;;5074189;28;20196;-49
2023/08/04 10:01:08;;;;;;;2.00;1.10;;;;;;;;;;5089094;28;20717;-52
2023/08/04 10:03:35;;;;;;;2.73;1.10;;;;;;;;;;5089266;28;20529;-48
2023/08/04 10:06:03;;;;;;;2.63;0.90;;;;;;;;;;5088863;28;20183;-46
2023/08/04 10:08:33;;;;;;;1.47;1.07;;;;;;;;;;5089611;28;20168;-48
2023/08/04 10:10:59;;;;;;;3.03;1.20;;;;;;;;;;5090624;28;20172;-47
2023/08/04 10:13:28;;;;;;;4.77;1.37;;;;;;;;;;5090960;28;20175;-48
2023/08/04 10:15:58;;;;;;;3.90;1.30;;;;;;;;;;5092139;28;20161;-51
2023/08/04 10:18:27;;;;;;;2.50;1.20;;;;;;;;;;5075509;28;20176;-46
2023/08/04 10:20:55;;;;;;;2.33;1.00;;;;;;;;;;5091968;28;20243;-49
2023/08/04 10:23:28;;;;;;;2.67;0.77;;;;;;;;;;5095171;28;20168;-47
2023/08/04 10:26:02;;;;;;;2.20;1.33;;;;;;;;;;5095488;28;20631;-50
2023/08/04 10:28:35;;;;;;;0.60;0.60;;;;;;;;;;5095766;28;20190;-49
2023/08/04 10:31:13;;;;;;;1.90;0.77;;;;;;;;;;5095835;28;20260;-46
2023/08/04 10:33:39;;;;;;;1.43;0.97;;;;;;;;;;5078650;28;20196;-49
2023/08/04 10:36:12;;;;;;;0.90;0.73;;;;;;;;;;5093207;28;20175;-47
2023/08/04 10:38:49;;;;;;;1.57;1.00;;;;;;;;;;5092281;28;20265;-49
2023/08/04 10:41:15;;;;;;;1.27;0.97;;;;;;;;;;5093351;28;20167;-50
2023/08/04 10:43:59;;;;;;;2.17;1.13;;;;;;;;;;5094122;28;20177;-48
2023/08/04 10:46:25;;;;;;;1.43;1.00;;;;;;;;;;5076275;28;20207;-51
2023/08/04 10:48:51;;;;;;;3.90;0.93;;;;;;;;;;5094527;28;20278;-49
2023/08/04 10:51:17;;;;;;;1.97;1.13;;;;;;;;;;5095796;28;20565;-46
2023/08/04 10:53:43;;;;;;;1.70;0.73;;;;;;;;;;5095448;28;20596;-47
2023/08/04 10:56:09;;;;;;;3.50;1.30;;;;;;;;;;5096015;28;20545;-50
2023/08/04 10:58:38;;;;;;;4.33;1.23;;;;;;;;;;5095744;28;20193;-48
2023/08/04 11:01:06;;;;;;;3.63;1.93;;;;;;;;;;5095165;28;20238;-46
2023/08/04 11:03:33;;;;;;;3.47;1.20;;;;;;;;;;5094669;28;20176;-49
2023/08/04 11:05:59;;;;;;;2.30;1.40;;;;;;;;;;5093909;28;20188;-53
2023/08/04 11:08:26;;;;;;;2.53;1.20;;;;;;;;;;5094087;28;20179;-47
2023/08/04 11:10:53;;;;;;;1.43;1.00;;;;;;;;;;5094047;28;20172;-50
2023/08/04 11:13:23;;;;;;;5.53;1.50;;;;;;;;;;5092910;28;20179;-51
2023/08/04 11:15:49;;;;;;;2.80;1.20;;;;;;;;;;5076137;28;20509;-51
2023/08/04 11:18:29;;;;;;;2.10;1.17;;;;;;;;;;5075614;28;20229;-49
2023/08/04 11:21:00;;;;;;;5.27;1.43;;;;;;;;;;5092939;28;20208;-48
2023/08/04 11:23:28;;;;;;;3.43;1.57;;;;;;;;;;5092020;28;20163;-50
2023/08/04 11:25:54;;;;;;;3.40;1.20;;;;;;;;;;5093989;28;20221;-46
2023/08/04 11:28:20;;;;;;;3.20;1.27;;;;;;;;;;5095024;28;20229;-50
2023/08/04 11:30:47;;;;;;;2.77;1.37;;;;;;;;;;5075333;28;20238;-48
2023/08/04 11:33:16;;;;;;;4.77;1.60;;;;;;;;;;5092152;28;20270;-51
2023/08/04 11:35:44;;;;;;;3.60;1.50;;;;;;;;;;5093444;28;20709;-48
2023/08/04 11:38:12;;;;;;;2.33;1.20;;;;;;;;;;5092241;28;20172;-47
2023/08/04 11:40:53;;;;;;;2.70;1.10;;;;;;;;;;5091524;28;20294;-49
2023/08/04 11:43:19;;;;;;;4.17;1.53;;;;;;;;;;5072593;28;20469;-49
2023/08/04 11:45:48;;;;;;;4.17;1.40;;;;;;;;;;5089400;28;20244;-52
2023/08/04 11:48:15;;;;;;;2.23;1.00;;;;;;;;;;5090165;28;20234;-49
2023/08/04 11:50:41;;;;;;;4.50;1.20;;;;;;;;;;5090178;28;20429;-49
2023/08/04 11:53:07;;;;;;;7.17;1.40;;;;;;;;;;5090549;28;20625;-49
2023/08/04 11:55:36;;;;;;;4.07;1.53;;;;;;;;;;5091917;28;20176;-50
2023/08/04 11:58:03;;;;;;;4.17;1.47;;;;;;;;;;5093342;28;20183;-49
2023/08/04 12:00:34;;;;;;;5.03;1.40;;;;;;;;;;5094868;28;20641;-49
2023/08/04 12:03:01;;;;;;;2.60;1.40;;;;;;;;;;5095012;28;20267;-49
2023/08/04 12:05:31;;;;;;;3.27;1.50;;;;;;;;;;5095120;28;20180;-48
2023/08/04 12:08:10;;;;;;;2.77;1.50;;;;;;;;;;5094405;28;20176;-47
2023/08/04 12:10:37;;;;;;;4.40;1.40;;;;;;;;;;5094230;28;20451;-46
2023/08/04 12:13:09;;;;;;;2.63;1.10;;;;;;;;;;5094581;28;20176;-46
2023/08/04 12:15:53;;;;;;;2.03;1.10;;;;;;;;;;5093913;28;20168;-45
2023/08/04 12:18:28;;;;;;;5.83;1.53;;;;;;;;;;5092262;28;20215;-51
2023/08/04 12:20:53;;;;;;;3.50;1.70;;;;;;;;;;5092172;28;20199;-50
2023/08/04 12:23:20;;;;;;;5.53;1.63;;;;;;;;;;5090925;28;20168;-49
2023/08/04 12:25:46;;;;;;;4.57;2.03;;;;;;;;;;5091399;28;20548;-46
2023/08/04 12:28:12;;;;;;;3.83;1.37;;;;;;;;;;5090938;28;20237;-51
2023/08/04 12:30:38;;;;;;;4.33;1.20;;;;;;;;;;5092859;28;20164;-48
2023/08/04 12:33:04;;;;;;;2.90;1.23;;;;;;;;;;5091548;28;20176;-50
2023/08/04 12:35:30;;;;;;;5.40;1.70;;;;;;;;;;5090996;28;20214;-48
2023/08/04 12:37:56;;;;;;;3.20;1.23;;;;;;;;;;5090098;28;20200;-47
2023/08/04 12:40:22;;;;;;;2.90;1.10;;;;;;;;;;5090448;28;20298;-48
2023/08/04 12:42:48;;;;;;;2.07;1.00;;;;;;;;;;5088726;28;20211;-51
2023/08/04 12:45:13;;;;;;;2.87;1.30;;;;;;;;;;5088913;28;20698;-50
2023/08/04 12:47:39;;;;;;;2.73;1.30;;;;;;;;;;5089464;28;20204;-48
2023/08/04 12:50:06;;;;;;;1.93;0.80;;;;;;;;;;5089759;28;20176;-49
2023/08/04 12:52:35;;;;;;;4.23;1.50;;;;;;;;;;5089981;28;20640;-50
2023/08/04 12:55:01;;;;;;;3.30;1.20;;;;;;;;;;5091115;28;20257;-51
2023/08/04 12:57:27;;;;;;;2.87;1.20;;;;;;;;;;5092924;28;20452;-51
2023/08/04 12:59:53;;;;;;;2.73;1.03;;;;;;;;;;5093127;28;20223;-49
2023/08/04 13:02:19;;;;;;;2.80;1.20;;;;;;;;;;5092457;28;20194;-49
2023/08/04 13:04:45;;;;;;;2.20;1.07;;;;;;;;;;5091885;28;20167;-47
2023/08/04 13:07:11;;;;;;;3.60;1.70;;;;;;;;;;5093113;28;20176;-46
2023/08/04 13:09:38;;;;;;;3.30;1.10;;;;;;;;;;5091196;28;20241;-48
2023/08/04 13:12:04;;;;;;;6.47;1.63;;;;;;;;;;5090533;28;20271;-47
2023/08/04 13:14:31;;;;;;;3.70;1.40;;;;;;;;;;5089591;28;20560;-50
2023/08/04 13:16:57;;;;;;;1.63;1.03;;;;;;;;;;5088084;28;20184;-50
2023/08/04 13:19:23;;;;;;;2.73;0.80;;;;;;;;;;5089748;28;20262;-53
2023/08/04 13:21:50;;;;;;;2.00;1.13;;;;;;;;;;5088881;28;20168;-46
2023/08/04 13:24:17;;;;;;;4.77;0.90;;;;;;;;;;5088839;28;20548;-46
2023/08/04 13:26:43;;;;;;;2.80;1.10;;;;;;;;;;5089766;28;20173;-50
2023/08/04 13:29:10;;;;;;;4.70;1.20;;;;;;;;;;5088384;28;20705;-51
2023/08/04 13:31:37;;;;;;;2.03;1.07;;;;;;;;;;5089875;28;20215;-53
2023/08/04 13:34:03;;;;;;;4.47;1.27;;;;;;;;;;5090867;28;20779;-49
2023/08/04 13:36:29;;;;;;;2.87;1.13;;;;;;;;;;5090822;28;20222;-52
2023/08/04 13:38:56;;;;;;;3.23;1.17;;;;;;;;;;5102318;28;20179;-52
2023/08/04 13:41:22;;;;;;;2.13;1.10;;;;;;;;;;5112915;28;20531;-53
2023/08/04 13:43:49;;;;;;;3.13;1.03;;;;;;;;;;5113495;28;20172;-51
2023/08/04 13:46:15;;;;;;;3.60;1.20;;;;;;;;;;5113606;28;20500;-50
2023/08/04 13:48:41;;;;;;;5.80;1.50;;;;;;;;;;5111648;28;20167;-47
2023/08/04 13:51:07;;;;;;;3.53;1.33;;;;;;;;;;5110963;28;20555;-52
2023/08/04 13:53:34;;;;;;;1.23;0.90;;;;;;;;;;5109285;28;20562;-50
2023/08/04 13:56:05;;;;;;;3.50;1.30;;;;;;;;;;5112434;28;20234;-50
2023/08/04 13:58:31;;;;;;;6.17;1.37;;;;;;;;;;5114464;28;20558;-46
2023/08/04 14:01:01;;;;;;;1.77;1.07;;;;;;;;;;5112913;28;20307;-48
2023/08/04 14:03:28;;;;;;;3.07;1.43;;;;;;;;;;5114334;28;20167;-48
2023/08/04 14:06:03;;;;;;;6.23;1.53;;;;;;;;;;5116031;28;20172;-49
2023/08/04 14:08:30;;;;;;;3.17;0.93;;;;;;;;;;5116823;28;20469;-50
2023/08/04 14:10:58;;;;;;;3.13;1.40;;;;;;;;;;5116701;28;20206;-49
2023/08/04 14:13:24;;;;;;;2.23;1.10;;;;;;;;;;5116954;28;20222;-49
2023/08/04 14:15:51;;;;;;;2.93;0.90;;;;;;;;;;5116486;28;20211;-52
2023/08/04 14:18:18;;;;;;;2.30;1.13;;;;;;;;;;5116372;28;20179;-49
2023/08/04 14:20:44;;;;;;;5.80;1.20;;;;;;;;;;5115050;28;20267;-51
2023/08/04 14:23:10;;;;;;;4.53;1.40;;;;;;;;;;5115899;28;20179;-46
2023/08/04 14:25:37;;;;;;;2.87;1.20;;;;;;;;;;5116054;28;20202;-48
2023/08/04 14:28:03;;;;;;;2.50;1.67;;;;;;;;;;5115039;28;20183;-48
2023/08/04 14:30:29;;;;;;;2.80;1.20;;;;;;;;;;5114001;28;20252;-50
2023/08/04 14:32:56;;;;;;;5.33;1.30;;;;;;;;;;5114725;28;20240;-52
2023/08/04 14:35:22;;;;;;;3.33;1.30;;;;;;;;;;5114684;28;20176;-52
2023/08/04 14:37:50;;;;;;;3.27;1.10;;;;;;;;;;5113204;28;20190;-48
2023/08/04 14:40:16;;;;;;;3.40;1.40;;;;;;;;;;5113171;28;20239;-49
2023/08/04 14:42:43;;;;;;;2.73;1.43;;;;;;;;;;5114359;28;20479;-51